Freedom of the Seas — C6UZ7 — position and weather

sailwx.info

Track history (hours):
 
Tides and Currents Weather Stations Pressure Air Temp Water Temp Dewpoint Dewpoint Depression Visibility Wind Speed Wind Dir Waves Ship Positions

Freedom of the Seas

Last reported at 2020-Jul-07 13:56 UTC. Time now 2020-Jul-07 18:34 UTC.
Position N 13°11' W 059°45'.

Length 339 m; draft 9 m.

Type: Passenger vessel. MMSI: 309906000.

Date/timePositionNaut miles runAvg speedWind from/ knotsBaromVisibWave heightAir tempDewpointWater temp
2020-Jul-07 13:56N 13°11' W 059°45'0 0.3
2020-Jul-07 12:57N 13°11' W 059°45'  
2020-Jul-05 05:29N 13°12' W 059°46'2 1.6
2020-Jul-05 04:00N 13°14' W 059°45'  
2020-Jul-02 20:30N 13°09' W 059°46'1 1.0
2020-Jul-02 19:30N 13°10' W 059°46'4 3.4
2020-Jul-02 18:29N 13°14' W 059°47'2 0.9
2020-Jul-02 15:57N 13°12' W 059°46'5 0.1
2020-Jul-01 03:48N 13°07' W 059°46'2 1.2
2020-Jul-01 02:18N 13°09' W 059°46'2 0.8
2020-Jul-01 00:00N 13°10' W 059°45'  
Track history (hours):
 
Tides and Currents Weather Stations Pressure Air Temp Water Temp Dewpoint Dewpoint Depression Visibility Wind Speed Wind Dir Waves Ship Positions

Freedom of the Seas

Last reported at 2020-Jul-07 13:56 UTC. Time now 2020-Jul-07 18:34 UTC.
Position N 13°11' W 059°45'.

Length 339 m; draft 9 m.

Type: Passenger vessel. MMSI: 309906000.

Date/timePositionNaut miles runAvg speedWind from/ knotsBaromVisibWave heightAir tempDewpointWater temp
2020-Jul-07 13:56N 13°11' W 059°45'0 0.3
2020-Jul-07 12:57N 13°11' W 059°45'  
2020-Jul-05 05:29N 13°12' W 059°46'2 1.6
2020-Jul-05 04:00N 13°14' W 059°45'  
2020-Jul-02 20:30N 13°09' W 059°46'1 1.0
2020-Jul-02 19:30N 13°10' W 059°46'4 3.4
2020-Jul-02 18:29N 13°14' W 059°47'2 0.9
2020-Jul-02 15:57N 13°12' W 059°46'5 0.1
2020-Jul-01 03:48N 13°07' W 059°46'2 1.2
2020-Jul-01 02:18N 13°09' W 059°46'2 0.8
2020-Jul-01 00:00N 13°10' W 059°45'  

Dump ship's entire track history